createdAt,value
2023-05-12T00:00:52.046Z,57.49
2023-05-12T00:03:23.602Z,58.02
2023-05-12T00:05:55.112Z,58.06
2023-05-12T00:08:26.919Z,58.12
2023-05-12T00:10:58.368Z,57.83
2023-05-12T00:13:30.178Z,58.02
2023-05-12T00:16:02.169Z,58.32
2023-05-12T00:18:33.791Z,58.06
2023-05-12T00:21:05.682Z,58.47
2023-05-12T00:23:37.135Z,58.29
2023-05-12T00:26:08.908Z,58.61
2023-05-12T00:28:40.361Z,58.34
2023-05-12T00:31:12.262Z,59.09
2023-05-12T00:33:43.769Z,59.20
2023-05-12T00:36:15.558Z,58.66
2023-05-12T00:38:47.016Z,58.55
2023-05-12T00:41:18.845Z,59.21
2023-05-12T00:43:50.320Z,59.29
2023-05-12T00:46:22.168Z,59.37
2023-05-12T00:48:53.998Z,59.12
2023-05-12T00:51:25.466Z,59.68
2023-05-12T00:53:57.120Z,58.93
2023-05-12T00:56:28.582Z,59.30
2023-05-12T00:59:00.360Z,60.04
2023-05-12T01:01:31.845Z,60.33
2023-05-12T01:04:03.595Z,60.42
2023-05-12T01:06:35.057Z,61.08
2023-05-12T01:09:06.959Z,60.61
2023-05-12T01:11:38.426Z,61.28
2023-05-12T01:14:10.213Z,61.59
2023-05-12T01:16:41.694Z,61.13
2023-05-12T01:19:13.208Z,61.39
2023-05-12T01:21:44.864Z,61.23
2023-05-12T01:24:16.351Z,61.32
2023-05-12T01:26:47.881Z,61.15
2023-05-12T01:29:19.302Z,61.57
2023-05-12T01:31:50.773Z,61.39
2023-05-12T01:34:22.213Z,60.99
2023-05-12T01:36:54.011Z,61.11
2023-05-12T01:39:25.491Z,60.92
2023-05-12T01:41:57.365Z,60.46
2023-05-12T01:44:28.811Z,61.03
2023-05-12T01:47:00.287Z,61.20
2023-05-12T01:49:32.135Z,60.65
2023-05-12T01:52:03.851Z,60.61
2023-05-12T01:54:35.330Z,61.21
2023-05-12T01:57:06.787Z,60.89
2023-05-12T01:59:38.271Z,60.67
2023-05-12T02:02:09.796Z,61.26
2023-05-12T02:04:41.292Z,61.50
2023-05-12T02:07:12.754Z,60.54
2023-05-12T02:09:44.536Z,60.17
2023-05-12T02:12:15.988Z,60.86
2023-05-12T02:14:47.808Z,60.97
2023-05-12T02:17:19.300Z,61.11
2023-05-12T02:19:50.950Z,61.38
2023-05-12T02:22:22.818Z,60.46
2023-05-12T02:24:54.617Z,61.00
2023-05-12T02:27:26.575Z,61.64
2023-05-12T02:29:58.154Z,62.22
2023-05-12T02:32:29.980Z,62.36
2023-05-12T02:35:01.464Z,61.83
2023-05-12T02:37:33.383Z,61.85
2023-05-12T02:40:04.855Z,62.13
2023-05-12T02:42:36.349Z,62.86
2023-05-12T02:45:07.799Z,62.60
2023-05-12T02:47:39.329Z,63.35
2023-05-12T02:50:10.801Z,64.01
2023-05-12T02:52:42.620Z,63.78
2023-05-12T02:55:14.367Z,63.82
2023-05-12T02:57:46.177Z,64.57
2023-05-12T03:00:17.966Z,64.51
2023-05-12T03:02:49.582Z,65.17
2023-05-12T03:05:21.308Z,65.83
2023-05-12T03:07:52.767Z,65.74
2023-05-12T03:10:24.391Z,66.71
2023-05-12T03:12:55.852Z,67.48
2023-05-12T03:15:27.767Z,68.03
2023-05-12T03:17:59.241Z,67.89
2023-05-12T03:20:31.290Z,67.99
2023-05-12T03:23:02.754Z,68.69
2023-05-12T03:25:34.203Z,69.50
2023-05-12T03:28:06.014Z,70.16
2023-05-12T03:30:37.472Z,69.84
2023-05-12T03:33:08.994Z,70.29
2023-05-12T03:35:40.443Z,70.26
2023-05-12T03:38:12.212Z,70.96
2023-05-12T03:40:43.669Z,70.78
2023-05-12T03:43:15.151Z,71.07
2023-05-12T03:45:46.596Z,71.16
2023-05-12T03:48:18.446Z,71.35
2023-05-12T03:50:49.904Z,71.58
2023-05-12T03:53:21.569Z,71.47
2023-05-12T03:55:53.020Z,71.63
2023-05-12T03:58:24.492Z,71.59
2023-05-12T04:00:56.928Z,71.58
2023-05-12T04:03:28.465Z,71.52
2023-05-12T04:06:00.286Z,71.92
2023-05-12T04:08:31.732Z,72.52
2023-05-12T04:11:03.597Z,72.85
2023-05-12T04:13:35.101Z,72.48
2023-05-12T04:16:06.953Z,75.51
2023-05-12T04:18:38.468Z,73.39
2023-05-12T04:21:09.923Z,72.87
2023-05-12T04:23:41.369Z,72.53
2023-05-12T04:26:12.986Z,72.41
2023-05-12T04:28:44.425Z,71.32
2023-05-12T04:31:16.183Z,71.75
2023-05-12T04:33:48.425Z,70.79
2023-05-12T04:36:20.363Z,71.11
2023-05-12T04:38:51.800Z,70.37
2023-05-12T04:41:23.272Z,70.83
2023-05-12T04:46:29.106Z,69.54
2023-05-12T04:49:00.666Z,69.54
2023-05-12T04:51:32.258Z,69.25
2023-05-12T04:54:04.268Z,67.81
2023-05-12T04:56:35.738Z,67.88
2023-05-12T04:59:07.557Z,67.12
2023-05-12T05:01:39.058Z,66.29
2023-05-12T05:04:10.590Z,65.29
2023-05-12T05:06:42.035Z,64.27
2023-05-12T05:09:13.503Z,62.62
2023-05-12T05:11:44.953Z,61.55
2023-05-12T05:14:16.787Z,62.00
2023-05-12T05:16:48.254Z,60.89
2023-05-12T05:19:25.739Z,60.74
2023-05-12T05:22:09.148Z,60.17
2023-05-12T05:24:40.601Z,59.77
2023-05-12T05:27:12.380Z,59.07
2023-05-12T05:29:43.843Z,58.25
2023-05-12T05:32:15.617Z,57.06
2023-05-12T05:34:47.113Z,56.34
2023-05-12T05:37:18.923Z,55.21
2023-05-12T05:39:50.409Z,54.09
2023-05-12T05:42:22.233Z,54.55
2023-05-12T05:44:53.884Z,53.46
2023-05-12T05:47:25.569Z,53.33
2023-05-12T05:49:57.389Z,52.63
2023-05-12T05:52:28.843Z,51.84
2023-05-12T05:55:00.344Z,51.71
2023-05-12T05:57:31.797Z,51.93
2023-05-12T06:00:03.300Z,51.62
2023-05-12T06:02:35.027Z,50.90
2023-05-12T06:05:07.005Z,50.22
2023-05-12T06:07:38.444Z,50.03
2023-05-12T06:10:10.121Z,49.73
2023-05-12T06:12:41.573Z,49.12
2023-05-12T06:15:13.520Z,48.01
2023-05-12T06:17:45.376Z,47.95
2023-05-12T06:20:16.864Z,48.11
2023-05-12T06:22:48.627Z,47.37
2023-05-12T06:25:20.250Z,47.06
2023-05-12T06:27:52.187Z,46.80
2023-05-12T06:30:23.634Z,45.41
2023-05-12T06:32:55.460Z,45.63
2023-05-12T06:35:26.923Z,45.60
2023-05-12T06:37:58.698Z,45.45
2023-05-12T06:40:30.191Z,45.20
2023-05-12T06:43:01.673Z,44.35
2023-05-12T06:45:33.518Z,44.31
2023-05-12T06:48:05.439Z,43.52
2023-05-12T06:50:36.990Z,43.19
2023-05-12T06:53:08.446Z,42.73
2023-05-12T06:55:39.953Z,42.74
2023-05-12T06:58:11.414Z,42.46
2023-05-12T07:00:43.270Z,42.14
2023-05-12T07:03:14.856Z,41.56
2023-05-12T07:05:46.838Z,41.34
2023-05-12T07:08:18.320Z,42.07
2023-05-12T07:10:49.792Z,40.36
2023-05-12T07:13:21.243Z,39.93
2023-05-12T07:15:52.930Z,39.96
2023-05-12T07:18:24.828Z,40.90
2023-05-12T07:20:56.702Z,39.06
2023-05-12T07:23:28.515Z,39.43
2023-05-12T07:25:59.984Z,39.39
2023-05-12T07:28:31.898Z,38.91
2023-05-12T07:31:03.400Z,38.94
2023-05-12T07:33:34.894Z,38.24
2023-05-12T07:36:06.336Z,38.29
2023-05-12T07:38:37.827Z,38.03
2023-05-12T07:41:09.296Z,37.29
2023-05-12T07:43:41.944Z,36.91
2023-05-12T07:46:13.443Z,36.70
2023-05-12T07:48:44.918Z,36.51
2023-05-12T07:51:16.384Z,36.62
2023-05-12T07:53:47.841Z,36.71
2023-05-12T07:56:19.815Z,35.38
2023-05-12T07:58:51.458Z,35.67
2023-05-12T08:01:22.917Z,34.95
2023-05-12T08:03:54.453Z,35.43
2023-05-12T08:06:25.996Z,35.01
2023-05-12T08:08:57.472Z,34.60
2023-05-12T08:11:29.204Z,34.21
2023-05-12T08:14:00.670Z,33.92
2023-05-12T08:16:32.489Z,33.72
2023-05-12T08:19:04.404Z,33.31
2023-05-12T08:21:36.045Z,33.67
2023-05-12T08:24:07.917Z,33.50
2023-05-12T08:26:39.406Z,33.49
2023-05-12T08:29:11.064Z,33.35
2023-05-12T08:31:42.561Z,32.62
2023-05-12T08:34:14.532Z,31.90
2023-05-12T08:36:46.089Z,31.57
2023-05-12T08:39:20.447Z,30.18
2023-05-12T08:41:52.002Z,30.61
2023-05-12T08:44:24.065Z,30.53
2023-05-12T08:46:55.546Z,30.13
2023-05-12T08:49:27.392Z,30.02
2023-05-12T08:51:59.383Z,29.94
2023-05-12T08:54:31.253Z,29.40
2023-05-12T08:59:37.216Z,29.19
2023-05-12T09:02:09.020Z,28.99
2023-05-12T09:04:40.606Z,28.86
2023-05-12T09:07:12.380Z,28.56
2023-05-12T09:09:43.837Z,29.25
2023-05-12T09:12:16.796Z,28.71
2023-05-12T09:14:48.398Z,28.49
2023-05-12T09:17:19.869Z,28.78
2023-05-12T09:19:51.673Z,28.18
2023-05-12T09:22:23.487Z,28.80
2023-05-12T09:24:55.139Z,29.02
2023-05-12T09:27:26.585Z,28.77
2023-05-12T09:29:59.876Z,29.13
2023-05-12T09:32:31.499Z,27.45
2023-05-12T09:35:02.992Z,27.06
2023-05-12T09:37:34.437Z,26.71
2023-05-12T09:40:06.220Z,25.80
2023-05-12T09:42:37.731Z,25.81
2023-05-12T09:45:09.583Z,25.77
2023-05-12T09:47:41.094Z,25.46
2023-05-12T09:50:12.832Z,25.31
2023-05-12T09:52:44.629Z,26.18
2023-05-12T09:55:16.103Z,25.49
2023-05-12T09:57:47.924Z,25.91
2023-05-12T10:00:33.266Z,26.40
2023-05-12T10:03:11.328Z,26.26
2023-05-12T10:05:42.861Z,26.19
2023-05-12T10:08:14.601Z,26.39
2023-05-12T10:10:46.073Z,26.66
2023-05-12T10:13:17.853Z,26.07
2023-05-12T10:15:49.850Z,26.49
2023-05-12T10:18:21.662Z,27.06
2023-05-12T10:20:53.488Z,27.27
2023-05-12T10:23:24.960Z,26.09
2023-05-12T10:25:56.898Z,26.46
2023-05-12T10:28:28.361Z,26.79
2023-05-12T10:31:00.227Z,26.56
2023-05-12T10:33:31.944Z,26.01
2023-05-12T10:36:03.888Z,26.44
2023-05-12T10:38:35.351Z,26.75
2023-05-12T10:41:07.053Z,26.17
2023-05-12T10:43:38.544Z,25.64
2023-05-12T10:46:10.284Z,25.65
2023-05-12T10:48:42.158Z,26.42
2023-05-12T10:51:13.697Z,26.00
2023-05-12T10:53:50.085Z,25.65
2023-05-12T10:56:24.458Z,25.82
2023-05-12T10:58:56.836Z,25.98
2023-05-12T11:01:28.890Z,25.35
2023-05-12T11:04:01.362Z,26.42
2023-05-12T11:06:33.025Z,27.50
2023-05-12T11:09:05.159Z,27.86
2023-05-12T11:11:38.438Z,27.12
2023-05-12T11:14:10.431Z,26.24
2023-05-12T11:16:42.282Z,27.42
2023-05-12T11:19:13.933Z,26.30
2023-05-12T11:21:45.778Z,25.58
2023-05-12T11:24:17.225Z,25.23
2023-05-12T11:26:48.834Z,24.89
2023-05-12T11:29:20.314Z,25.41
2023-05-12T11:31:52.333Z,25.07
2023-05-12T11:34:23.798Z,25.13
2023-05-12T11:36:55.515Z,24.25
2023-05-12T11:39:26.956Z,25.21
2023-05-12T11:42:09.143Z,25.86
2023-05-12T11:44:44.377Z,25.34
2023-05-12T11:47:15.857Z,24.29
2023-05-12T11:49:47.691Z,23.95
2023-05-12T11:52:19.176Z,24.23
2023-05-12T11:54:51.052Z,23.63
2023-05-12T11:57:22.515Z,24.61
2023-05-12T11:59:54.226Z,24.70
2023-05-12T12:02:25.779Z,25.21
2023-05-12T12:04:57.431Z,24.74
2023-05-12T12:07:32.078Z,24.19
2023-05-12T12:10:03.943Z,24.83
2023-05-12T12:12:35.668Z,24.30
2023-05-12T12:15:07.333Z,24.67
2023-05-12T12:17:38.935Z,24.49
2023-05-12T12:20:10.481Z,23.78
2023-05-12T12:22:42.266Z,23.73
2023-05-12T12:25:13.734Z,24.21
2023-05-12T12:27:45.526Z,24.77
2023-05-12T12:30:16.982Z,24.92
2023-05-12T12:32:48.849Z,25.50
2023-05-12T12:35:20.537Z,25.00
2023-05-12T12:37:52.438Z,25.25
2023-05-12T12:40:23.924Z,24.59
2023-05-12T12:42:55.678Z,24.44
2023-05-12T12:45:27.522Z,24.96
2023-05-12T12:47:59.225Z,26.72
2023-05-12T12:50:30.945Z,25.32
2023-05-12T12:53:02.416Z,25.55
2023-05-12T12:55:33.904Z,24.81
2023-05-12T12:58:05.362Z,24.10
2023-05-12T13:00:36.883Z,24.16
2023-05-12T13:03:08.429Z,23.90
2023-05-12T13:05:39.942Z,23.73
2023-05-12T13:08:11.394Z,23.93
2023-05-12T13:10:43.188Z,24.12
2023-05-12T13:13:14.642Z,24.84
2023-05-12T13:15:46.436Z,24.05
2023-05-12T13:18:18.248Z,23.72
2023-05-12T13:20:49.773Z,24.39
2023-05-12T13:23:21.528Z,24.26
2023-05-12T13:25:52.993Z,23.41
2023-05-12T13:28:24.808Z,22.95
2023-05-12T13:30:56.304Z,22.89
2023-05-12T13:33:28.293Z,22.91
2023-05-12T13:35:59.742Z,23.23
2023-05-12T13:38:31.561Z,23.92
2023-05-12T13:41:03.055Z,23.59
2023-05-12T13:43:34.520Z,23.17
2023-05-12T13:46:06.527Z,23.16
2023-05-12T13:48:37.997Z,23.59
2023-05-12T13:51:09.982Z,23.19
2023-05-12T13:53:41.407Z,22.79
2023-05-12T13:56:13.196Z,24.36
2023-05-12T13:58:44.812Z,23.44
2023-05-12T14:01:16.906Z,23.43
2023-05-12T14:03:48.441Z,23.17
2023-05-12T14:06:20.240Z,22.57
2023-05-12T14:08:51.710Z,23.27
2023-05-12T14:11:23.685Z,23.25
2023-05-12T14:13:55.537Z,22.87
2023-05-12T14:16:27.442Z,22.94
2023-05-12T14:18:59.315Z,22.80
2023-05-12T14:21:30.798Z,22.77
2023-05-12T14:24:02.694Z,22.95
2023-05-12T14:26:34.163Z,22.41
2023-05-12T14:29:06.966Z,23.48
2023-05-12T14:31:40.240Z,22.39
2023-05-12T14:34:12.092Z,22.46
2023-05-12T14:36:43.559Z,22.84
2023-05-12T14:39:15.186Z,21.90
2023-05-12T14:41:46.838Z,22.98
2023-05-12T14:44:18.614Z,23.57
2023-05-12T14:46:50.451Z,23.29
2023-05-12T14:49:21.911Z,23.38
2023-05-12T14:51:53.784Z,23.11
2023-05-12T14:54:26.102Z,24.09
2023-05-12T14:56:58.074Z,24.70
2023-05-12T14:59:29.556Z,23.07
2023-05-12T15:02:01.415Z,22.70
2023-05-12T15:04:32.910Z,23.21
2023-05-12T15:07:04.872Z,22.50
2023-05-12T15:09:36.320Z,22.22
2023-05-12T15:12:08.133Z,22.50
2023-05-12T15:14:39.614Z,22.63
2023-05-12T15:17:11.191Z,22.51
2023-05-12T15:19:42.809Z,22.88
2023-05-12T15:22:14.274Z,22.84
2023-05-12T15:24:45.806Z,23.09
2023-05-12T15:27:17.262Z,22.79
2023-05-12T15:29:49.080Z,22.56
2023-05-12T15:32:20.531Z,23.08
2023-05-12T15:34:52.365Z,23.05
2023-05-12T15:37:23.820Z,22.93
2023-05-12T15:39:55.469Z,23.14
2023-05-12T15:42:32.960Z,23.08
2023-05-12T15:45:04.948Z,23.55
2023-05-12T15:47:36.489Z,23.44
2023-05-12T15:50:08.031Z,23.46
2023-05-12T15:52:39.491Z,23.75
2023-05-12T15:55:10.949Z,24.00
2023-05-12T15:57:42.900Z,24.93
2023-05-12T16:00:14.402Z,24.62
2023-05-12T16:02:46.212Z,25.16
2023-05-12T16:05:17.795Z,25.10
2023-05-12T16:07:49.436Z,25.56
2023-05-12T16:10:21.203Z,25.99
2023-05-12T16:12:52.826Z,26.08
2023-05-12T16:15:24.480Z,27.15
2023-05-12T16:17:56.000Z,27.10
2023-05-12T16:20:27.791Z,27.66
2023-05-12T16:22:59.252Z,28.33
2023-05-12T16:25:30.971Z,28.62
2023-05-12T16:28:02.421Z,28.47
2023-05-12T16:30:33.892Z,28.94
2023-05-12T16:33:05.374Z,29.54
2023-05-12T16:35:36.877Z,29.82
2023-05-12T16:38:08.334Z,29.88
2023-05-12T16:40:39.787Z,30.41
2023-05-12T16:43:11.648Z,30.51
2023-05-12T16:45:43.088Z,30.47
2023-05-12T16:48:14.890Z,30.76
2023-05-12T16:50:46.361Z,30.57
2023-05-12T16:53:18.334Z,30.78
2023-05-12T16:55:49.807Z,30.97
2023-05-12T16:58:21.261Z,30.77
2023-05-12T17:00:52.982Z,31.00
2023-05-12T17:03:24.689Z,31.28
2023-05-12T17:05:56.181Z,31.56
2023-05-12T17:08:27.959Z,31.32
2023-05-12T17:10:59.718Z,31.56
2023-05-12T17:13:31.181Z,32.15
2023-05-12T17:16:02.701Z,31.24
2023-05-12T17:19:13.627Z,31.96
2023-05-12T17:21:25.750Z,31.89
2023-05-12T17:23:57.236Z,31.87
2023-05-12T17:26:29.119Z,31.97
2023-05-12T17:29:00.622Z,32.18
2023-05-12T17:31:32.346Z,32.18
2023-05-12T17:34:04.107Z,32.29
2023-05-12T17:36:35.631Z,32.57
2023-05-12T17:39:07.500Z,32.58
2023-05-12T17:41:38.997Z,32.98
2023-05-12T17:44:10.728Z,32.96
2023-05-12T17:46:42.254Z,32.98
2023-05-12T17:49:13.830Z,33.20
2023-05-12T17:51:45.319Z,33.08
2023-05-12T17:54:17.123Z,33.18
2023-05-12T17:56:48.591Z,33.55
2023-05-12T17:59:20.076Z,33.42
2023-05-12T18:01:51.621Z,33.36
2023-05-12T18:04:23.315Z,33.41
2023-05-12T18:06:55.058Z,33.47
2023-05-12T18:09:26.859Z,33.82
2023-05-12T18:11:58.741Z,33.72
2023-05-12T18:14:30.168Z,34.06
2023-05-12T18:17:02.039Z,33.98
2023-05-12T18:19:33.525Z,33.90
2023-05-12T18:22:05.112Z,34.11
2023-05-12T18:24:36.563Z,34.13
2023-05-12T18:27:08.026Z,34.29
2023-05-12T18:29:40.631Z,34.53
2023-05-12T18:32:12.113Z,34.66
2023-05-12T18:34:43.583Z,34.91
2023-05-12T18:37:15.038Z,35.04
2023-05-12T18:39:46.596Z,35.30
2023-05-12T18:42:18.064Z,35.45
2023-05-12T18:44:49.524Z,35.65
2023-05-12T18:47:20.971Z,35.80
2023-05-12T18:49:52.671Z,35.75
2023-05-12T18:52:24.124Z,36.00
2023-05-12T18:54:55.677Z,35.94
2023-05-12T18:57:27.127Z,36.09
2023-05-12T18:59:58.900Z,36.35
2023-05-12T19:02:30.386Z,36.38
2023-05-12T19:05:01.956Z,36.52
2023-05-12T19:07:33.460Z,36.96
2023-05-12T19:10:04.928Z,36.81
2023-05-12T19:12:36.452Z,37.46
2023-05-12T19:15:07.971Z,37.46
2023-05-12T19:17:39.537Z,37.47
2023-05-12T19:20:11.057Z,37.83
2023-05-12T19:22:42.905Z,37.88
2023-05-12T19:25:14.383Z,38.07
2023-05-12T19:27:46.287Z,38.73
2023-05-12T19:30:31.659Z,38.64
2023-05-12T19:33:03.252Z,38.77
2023-05-12T19:35:34.831Z,39.21
2023-05-12T19:38:06.688Z,39.03
2023-05-12T19:40:38.208Z,39.53
2023-05-12T19:43:09.912Z,39.53
2023-05-12T19:45:41.400Z,39.74
2023-05-12T19:48:12.949Z,39.99
2023-05-12T19:50:44.436Z,40.07
2023-05-12T19:53:15.911Z,40.21
2023-05-12T19:55:47.746Z,40.87
2023-05-12T19:58:19.200Z,41.14
2023-05-12T20:00:50.725Z,41.33
2023-05-12T20:03:22.455Z,41.50
2023-05-12T20:05:54.090Z,41.73
2023-05-12T20:08:25.670Z,41.81
2023-05-12T20:10:57.412Z,41.81
2023-05-12T20:13:30.027Z,42.10
2023-05-12T20:16:01.498Z,42.61
2023-05-12T20:18:33.080Z,42.43
2023-05-12T20:21:04.571Z,42.96
2023-05-12T20:23:36.031Z,42.62
2023-05-12T20:26:07.481Z,42.87
2023-05-12T20:28:38.951Z,43.37
2023-05-12T20:31:10.488Z,43.55
2023-05-12T20:33:41.980Z,43.55
2023-05-12T20:36:13.428Z,43.98
2023-05-12T20:38:44.891Z,44.25
2023-05-12T20:41:16.343Z,44.36
2023-05-12T20:43:48.183Z,44.78
2023-05-12T20:46:20.081Z,44.44
2023-05-12T20:48:52.037Z,45.14
2023-05-12T20:51:23.750Z,45.08
2023-05-12T20:53:55.204Z,45.22
2023-05-12T20:56:27.095Z,45.08
2023-05-12T20:58:58.636Z,45.55
2023-05-12T21:01:30.432Z,45.42
2023-05-12T21:04:02.006Z,45.72
2023-05-12T21:06:33.500Z,45.84
2023-05-12T21:09:04.952Z,45.97
2023-05-12T21:11:36.415Z,46.06
2023-05-12T21:14:07.876Z,46.14
2023-05-12T21:16:39.382Z,46.61
2023-05-12T21:19:10.991Z,46.83
2023-05-12T21:21:42.819Z,46.96
2023-05-12T21:24:14.281Z,47.13
2023-05-12T21:26:45.735Z,47.55
2023-05-12T21:29:17.193Z,47.43
2023-05-12T21:31:48.710Z,47.84
2023-05-12T21:34:20.427Z,48.01
2023-05-12T21:36:51.882Z,48.68
2023-05-12T21:39:23.351Z,48.60
2023-05-12T21:41:54.793Z,48.96
2023-05-12T21:44:26.739Z,49.48
2023-05-12T21:46:58.193Z,49.66
2023-05-12T21:49:30.115Z,49.52
2023-05-12T21:52:01.604Z,50.02
2023-05-12T21:54:33.426Z,49.68
2023-05-12T21:57:05.277Z,50.01
2023-05-12T21:59:36.722Z,50.03
2023-05-12T22:02:08.485Z,50.36
2023-05-12T22:04:39.996Z,50.46
2023-05-12T22:07:11.776Z,50.75
2023-05-12T22:09:43.246Z,50.96
2023-05-12T22:12:15.012Z,50.97
2023-05-12T22:14:46.466Z,51.45
2023-05-12T22:17:17.947Z,51.47
2023-05-12T22:19:49.436Z,51.79
2023-05-12T22:22:21.233Z,52.03
2023-05-12T22:24:52.682Z,52.41
2023-05-12T22:27:24.676Z,52.22
2023-05-12T22:29:56.516Z,52.49
2023-05-12T22:32:28.097Z,52.99
2023-05-12T22:35:00.172Z,52.93
2023-05-12T22:37:31.651Z,53.09
2023-05-12T22:40:03.419Z,53.19
2023-05-12T22:42:34.862Z,53.64
2023-05-12T22:45:06.639Z,53.76
2023-05-12T22:47:38.232Z,53.69
2023-05-12T22:50:09.734Z,54.38
2023-05-12T22:52:41.187Z,53.85
2023-05-12T22:55:13.031Z,54.26
2023-05-12T22:57:44.895Z,54.45
2023-05-12T23:00:16.693Z,54.19
2023-05-12T23:02:48.518Z,54.44
2023-05-12T23:05:20.041Z,54.29
2023-05-12T23:07:51.788Z,54.19
2023-05-12T23:10:23.511Z,54.13
2023-05-12T23:12:55.484Z,54.60
2023-05-12T23:15:26.972Z,54.36
2023-05-12T23:17:58.754Z,54.77
2023-05-12T23:20:30.258Z,54.56
2023-05-12T23:23:02.104Z,54.93
2023-05-12T23:25:33.599Z,55.42
2023-05-12T23:28:05.579Z,55.36
2023-05-12T23:30:37.048Z,54.91
2023-05-12T23:33:08.746Z,55.60
2023-05-12T23:35:40.281Z,55.59
2023-05-12T23:38:11.723Z,55.48
2023-05-12T23:40:43.182Z,55.88
2023-05-12T23:43:14.626Z,55.90
2023-05-12T23:45:46.250Z,56.63
2023-05-12T23:48:17.735Z,56.91
2023-05-12T23:50:49.175Z,56.52
2023-05-12T23:53:20.625Z,56.82
2023-05-12T23:55:52.238Z,57.28
2023-05-12T23:58:23.680Z,57.24
